createdAt,value
2023-03-30T00:01:31.920Z,14.54
2023-03-30T00:04:03.155Z,14.56
2023-03-30T00:06:34.452Z,14.58
2023-03-30T00:09:06.375Z,14.59
2023-03-30T00:11:38.066Z,14.63
2023-03-30T00:14:07.978Z,14.65
2023-03-30T00:16:40.542Z,14.65
2023-03-30T00:19:11.043Z,14.67
2023-03-30T00:21:42.990Z,14.68
2023-03-30T00:24:15.988Z,14.69
2023-03-30T00:26:46.253Z,14.69
2023-03-30T00:29:16.204Z,14.69
2023-03-30T00:31:49.085Z,14.70
2023-03-30T00:34:19.034Z,14.71
2023-03-30T00:36:50.335Z,14.72
2023-03-30T00:39:22.993Z,14.70
2023-03-30T00:41:55.594Z,14.70
2023-03-30T00:44:55.654Z,14.62
2023-03-30T00:47:29.121Z,14.66
2023-03-30T00:49:59.677Z,14.57
2023-03-30T00:52:31.352Z,14.57
2023-03-30T00:55:01.410Z,14.54
2023-03-30T00:57:31.885Z,14.51
2023-03-30T01:00:02.199Z,14.52
2023-03-30T01:02:39.922Z,14.50
2023-03-30T01:05:12.125Z,14.44
2023-03-30T01:07:47.663Z,14.43
2023-03-30T01:10:17.865Z,14.43
2023-03-30T01:12:48.588Z,14.42
2023-03-30T01:15:19.579Z,14.36
2023-03-30T01:18:09.966Z,14.31
2023-03-30T01:21:16.412Z,14.24
2023-03-30T01:24:16.290Z,14.28
2023-03-30T01:26:53.703Z,14.30
2023-03-30T01:29:44.505Z,14.28
2023-03-30T01:32:31.573Z,14.27
2023-03-30T01:35:21.597Z,14.28
2023-03-30T01:38:12.644Z,14.26
2023-03-30T01:40:54.216Z,14.31
2023-03-30T01:43:32.792Z,14.31
2023-03-30T01:46:08.066Z,14.34
2023-03-30T01:48:46.017Z,14.35
2023-03-30T01:51:23.266Z,14.32
2023-03-30T01:54:01.333Z,14.30
2023-03-30T01:56:38.577Z,14.30
2023-03-30T01:59:14.930Z,14.34
2023-03-30T02:01:50.791Z,14.33
2023-03-30T02:04:25.926Z,14.38
2023-03-30T02:07:01.845Z,14.41
2023-03-30T02:09:33.676Z,14.42
2023-03-30T02:12:07.337Z,14.44
2023-03-30T02:14:39.637Z,14.45
2023-03-30T02:17:15.235Z,14.48
2023-03-30T02:19:46.593Z,14.50
2023-03-30T02:22:18.743Z,14.51
2023-03-30T02:24:53.976Z,14.58
2023-03-30T02:27:29.896Z,14.61
2023-03-30T02:30:00.618Z,14.69
2023-03-30T02:32:33.045Z,14.70
2023-03-30T02:35:23.672Z,14.73
2023-03-30T02:38:45.781Z,14.75
2023-03-30T02:41:32.628Z,14.80
2023-03-30T02:44:12.879Z,14.86
2023-03-30T02:47:00.584Z,14.89
2023-03-30T02:49:46.975Z,14.93
2023-03-30T02:52:26.841Z,14.96
2023-03-30T02:55:03.298Z,14.96
2023-03-30T02:57:39.441Z,15.00
2023-03-30T03:00:18.762Z,14.96
2023-03-30T03:02:55.949Z,14.95
2023-03-30T03:05:28.031Z,14.98
2023-03-30T03:07:58.236Z,14.94
2023-03-30T03:10:28.265Z,14.97
2023-03-30T03:12:58.898Z,14.96
2023-03-30T03:15:32.176Z,14.94
2023-03-30T03:18:02.109Z,14.94
2023-03-30T03:20:32.108Z,14.92
2023-03-30T03:23:02.153Z,14.95
2023-03-30T03:25:32.116Z,14.93
2023-03-30T03:28:02.117Z,14.93
2023-03-30T03:30:35.075Z,14.92
2023-03-30T03:33:05.065Z,14.87
2023-03-30T03:35:35.560Z,14.86
2023-03-30T03:38:05.555Z,14.83
2023-03-30T03:40:36.079Z,14.83
2023-03-30T03:43:06.347Z,14.84
2023-03-30T03:45:39.126Z,14.81
2023-03-30T03:48:09.790Z,14.85
2023-03-30T03:50:40.002Z,14.87
2023-03-30T03:53:10.163Z,14.87
2023-03-30T03:55:40.435Z,14.88
2023-03-30T03:58:10.793Z,14.94
2023-03-30T04:00:43.437Z,14.95
2023-03-30T04:03:14.041Z,14.99
2023-03-30T04:05:44.123Z,15.00
2023-03-30T04:08:14.459Z,15.03
2023-03-30T04:10:44.989Z,15.01
2023-03-30T04:13:15.303Z,15.03
2023-03-30T04:15:48.206Z,15.00
2023-03-30T04:18:18.277Z,15.05
2023-03-30T04:20:48.433Z,15.01
2023-03-30T04:23:22.294Z,15.02
2023-03-30T04:25:52.402Z,14.97
2023-03-30T04:28:24.949Z,15.01
2023-03-30T04:31:01.077Z,15.00
2023-03-30T04:33:35.264Z,15.04
2023-03-30T04:36:05.456Z,15.07
2023-03-30T04:38:36.744Z,15.10
2023-03-30T04:41:07.706Z,15.16
2023-03-30T04:43:37.794Z,15.18
2023-03-30T04:46:10.702Z,15.18
2023-03-30T04:48:40.809Z,15.24
2023-03-30T04:51:11.226Z,15.24
2023-03-30T04:53:41.387Z,15.23
2023-03-30T04:56:11.842Z,15.23
2023-03-30T04:58:41.899Z,15.22
2023-03-30T05:01:14.770Z,15.20
2023-03-30T05:03:44.841Z,15.21
2023-03-30T05:06:14.967Z,15.20
2023-03-30T05:08:45.023Z,15.20
2023-03-30T05:11:15.035Z,15.20
2023-03-30T05:13:45.117Z,15.21
2023-03-30T05:16:22.396Z,15.22
2023-03-30T05:18:52.843Z,15.23
2023-03-30T05:21:22.853Z,15.22
2023-03-30T05:23:53.144Z,15.22
2023-03-30T05:26:24.130Z,15.25
2023-03-30T05:28:54.411Z,15.21
2023-03-30T05:31:28.226Z,15.26
2023-03-30T05:33:58.280Z,15.25
2023-03-30T05:36:29.233Z,15.26
2023-03-30T05:38:59.347Z,15.30
2023-03-30T05:41:29.812Z,15.29
2023-03-30T05:43:59.775Z,15.30
2023-03-30T05:46:32.470Z,15.29
2023-03-30T05:49:02.588Z,15.30
2023-03-30T05:51:32.610Z,15.33
2023-03-30T05:54:03.723Z,15.34
2023-03-30T05:56:33.795Z,15.33
2023-03-30T05:59:05.303Z,15.36
2023-03-30T06:01:38.026Z,15.31
2023-03-30T06:04:08.890Z,15.30
2023-03-30T06:06:38.880Z,15.33
2023-03-30T06:09:08.903Z,15.30
2023-03-30T06:11:39.345Z,15.35
2023-03-30T06:14:10.805Z,15.32
2023-03-30T06:16:43.597Z,15.30
2023-03-30T06:19:14.802Z,15.33
2023-03-30T06:21:44.840Z,15.30
2023-03-30T06:24:14.783Z,15.34
2023-03-30T06:26:44.855Z,15.31
2023-03-30T06:29:14.795Z,15.33
2023-03-30T06:31:48.393Z,15.34
2023-03-30T06:34:18.430Z,15.34
2023-03-30T06:36:49.423Z,15.35
2023-03-30T06:39:19.817Z,15.37
2023-03-30T06:41:49.868Z,15.36
2023-03-30T06:44:20.007Z,15.36
2023-03-30T06:46:52.632Z,15.37
2023-03-30T06:49:22.863Z,15.42
2023-03-30T06:51:53.070Z,15.41
2023-03-30T06:54:25.472Z,15.42
2023-03-30T06:56:55.869Z,15.46
2023-03-30T06:59:26.384Z,15.43
2023-03-30T07:01:59.122Z,15.44
2023-03-30T07:04:29.373Z,15.43
2023-03-30T07:07:00.379Z,15.47
2023-03-30T07:09:30.503Z,15.48
2023-03-30T07:12:00.540Z,15.48
2023-03-30T07:14:33.499Z,15.49
2023-03-30T07:17:07.961Z,15.49
2023-03-30T07:19:38.160Z,15.52
2023-03-30T07:22:08.401Z,15.52
2023-03-30T07:24:38.630Z,15.51
2023-03-30T07:27:08.681Z,15.53
2023-03-30T07:29:39.005Z,15.49
2023-03-30T07:32:11.881Z,15.52
2023-03-30T07:34:42.175Z,15.56
2023-03-30T07:37:12.473Z,15.56
2023-03-30T07:39:42.572Z,15.57
2023-03-30T07:42:14.413Z,15.55
2023-03-30T07:44:44.506Z,15.56
2023-03-30T07:47:17.114Z,15.56
2023-03-30T07:49:47.029Z,15.57
2023-03-30T07:52:17.493Z,15.56
2023-03-30T07:54:47.488Z,15.62
2023-03-30T07:57:17.550Z,15.65
2023-03-30T07:59:47.749Z,15.67
2023-03-30T08:02:24.320Z,15.73
2023-03-30T08:04:56.076Z,15.78
2023-03-30T08:07:30.486Z,15.81
2023-03-30T08:10:00.585Z,15.81
2023-03-30T08:12:30.529Z,15.81
2023-03-30T08:15:01.072Z,15.80
2023-03-30T08:17:34.077Z,15.76
2023-03-30T08:20:11.230Z,15.76
2023-03-30T08:22:41.818Z,15.80
2023-03-30T08:25:12.476Z,15.88
2023-03-30T08:27:42.530Z,15.89
2023-03-30T08:30:16.177Z,15.87
2023-03-30T08:32:49.110Z,15.89
2023-03-30T08:35:19.277Z,15.82
2023-03-30T08:37:49.217Z,15.78
2023-03-30T08:40:21.013Z,15.73
2023-03-30T08:43:29.450Z,15.78
2023-03-30T08:46:03.052Z,16.01
2023-03-30T08:48:43.009Z,16.04
2023-03-30T08:51:24.175Z,15.96
2023-03-30T08:53:59.128Z,15.99
2023-03-30T08:56:32.531Z,16.06
2023-03-30T08:59:11.839Z,15.96
2023-03-30T09:01:49.782Z,15.93
2023-03-30T09:04:30.203Z,15.93
2023-03-30T09:07:05.543Z,15.87
2023-03-30T09:09:43.860Z,15.93
2023-03-30T09:12:23.801Z,16.14
2023-03-30T09:15:00.651Z,16.33
2023-03-30T09:17:35.523Z,16.42
2023-03-30T09:20:13.354Z,16.45
2023-03-30T09:22:45.188Z,16.48
2023-03-30T09:25:17.872Z,16.50
2023-03-30T09:28:04.635Z,16.50
2023-03-30T09:30:42.626Z,16.48
2023-03-30T09:33:28.370Z,16.44
2023-03-30T09:36:17.979Z,16.34
2023-03-30T09:38:48.964Z,16.30
2023-03-30T09:41:42.078Z,16.27
2023-03-30T09:44:22.013Z,16.34
2023-03-30T09:46:52.651Z,16.35
2023-03-30T09:49:23.008Z,16.37
2023-03-30T09:52:05.419Z,16.31
2023-03-30T09:54:41.147Z,16.25
2023-03-30T09:57:27.480Z,16.29
2023-03-30T09:59:58.363Z,16.38
2023-03-30T10:02:31.649Z,16.41
2023-03-30T10:05:05.244Z,16.41
2023-03-30T10:07:40.275Z,16.38
2023-03-30T10:10:19.810Z,16.36
2023-03-30T10:12:52.838Z,16.41
2023-03-30T10:15:25.802Z,16.38
2023-03-30T10:17:56.838Z,16.43
2023-03-30T10:20:30.031Z,16.37
2023-03-30T10:23:05.855Z,16.46
2023-03-30T10:25:38.802Z,16.50
2023-03-30T10:28:21.974Z,16.54
2023-03-30T10:30:57.753Z,16.50
2023-03-30T10:33:28.773Z,16.59
2023-03-30T10:36:06.432Z,16.59
2023-03-30T10:38:40.837Z,16.60
2023-03-30T10:41:13.585Z,16.66
2023-03-30T10:43:45.199Z,16.66
2023-03-30T10:46:20.657Z,16.73
2023-03-30T10:49:15.416Z,16.74
2023-03-30T10:51:58.462Z,16.88
2023-03-30T10:54:38.433Z,16.82
2023-03-30T10:57:14.132Z,16.99
2023-03-30T10:59:58.627Z,17.08
2023-03-30T11:02:52.105Z,17.12
2023-03-30T11:05:25.642Z,17.32
2023-03-30T11:08:00.145Z,17.47
2023-03-30T11:10:34.489Z,17.66
2023-03-30T11:13:07.647Z,17.86
2023-03-30T11:15:44.022Z,17.86
2023-03-30T11:18:21.652Z,17.81
2023-03-30T11:20:58.270Z,17.75
2023-03-30T11:23:32.743Z,17.68
2023-03-30T11:26:08.708Z,17.56
2023-03-30T11:28:57.047Z,17.49
2023-03-30T11:31:42.832Z,17.66
2023-03-30T11:34:21.732Z,17.95
2023-03-30T11:36:58.765Z,17.91
2023-03-30T11:39:34.031Z,17.87
2023-03-30T11:42:14.541Z,17.89
2023-03-30T11:44:44.551Z,17.76
2023-03-30T11:47:28.180Z,17.58
2023-03-30T11:50:08.636Z,17.63
2023-03-30T11:52:46.651Z,17.67
2023-03-30T11:55:32.126Z,17.64
2023-03-30T11:58:13.642Z,17.65
2023-03-30T12:01:03.417Z,17.67
2023-03-30T12:03:42.823Z,17.67
2023-03-30T12:06:31.460Z,17.60
2023-03-30T12:09:16.805Z,17.52
2023-03-30T12:11:50.625Z,17.49
2023-03-30T12:14:59.610Z,17.51
2023-03-30T12:17:37.915Z,17.66
2023-03-30T12:20:18.365Z,17.55
2023-03-30T12:22:55.587Z,17.58
2023-03-30T12:25:34.266Z,17.49
2023-03-30T12:28:14.262Z,17.41
2023-03-30T12:30:49.693Z,17.54
2023-03-30T12:33:29.206Z,17.53
2023-03-30T12:36:01.671Z,17.49
2023-03-30T12:38:41.186Z,17.39
2023-03-30T12:41:18.698Z,17.30
2023-03-30T12:44:19.393Z,17.19
2023-03-30T12:47:06.778Z,16.98
2023-03-30T12:49:49.015Z,16.91
2023-03-30T12:52:29.128Z,16.84
2023-03-30T12:55:12.935Z,16.52
2023-03-30T12:57:59.192Z,16.39
2023-03-30T13:00:50.088Z,16.30
2023-03-30T13:03:41.765Z,16.32
2023-03-30T13:06:22.312Z,16.37
2023-03-30T13:08:57.963Z,16.38
2023-03-30T13:11:28.012Z,16.46
2023-03-30T13:14:00.948Z,16.54
2023-03-30T13:16:50.735Z,16.63
2023-03-30T13:19:29.760Z,16.77
2023-03-30T13:22:02.020Z,16.86
2023-03-30T13:24:41.633Z,16.91
2023-03-30T13:27:26.526Z,16.95
2023-03-30T13:29:59.221Z,16.99
2023-03-30T13:32:58.112Z,16.96
2023-03-30T13:35:50.352Z,17.05
2023-03-30T13:38:58.268Z,17.12
2023-03-30T13:41:38.444Z,17.19
2023-03-30T13:44:23.591Z,17.17
2023-03-30T13:46:56.656Z,17.11
2023-03-30T13:49:40.027Z,17.14
2023-03-30T13:52:15.225Z,17.34
2023-03-30T13:54:46.826Z,17.41
2023-03-30T13:57:23.790Z,17.46
2023-03-30T13:59:57.239Z,17.45
2023-03-30T14:02:29.728Z,17.44
2023-03-30T14:05:14.552Z,17.42
2023-03-30T14:07:47.691Z,17.42
2023-03-30T14:10:19.956Z,17.63
2023-03-30T14:12:54.159Z,17.71
2023-03-30T14:15:26.867Z,17.79
2023-03-30T14:17:58.766Z,17.77
2023-03-30T14:20:49.661Z,17.71
2023-03-30T14:23:31.215Z,17.64
2023-03-30T14:26:04.752Z,17.57
2023-03-30T14:28:41.737Z,17.53
2023-03-30T14:31:17.770Z,17.50
2023-03-30T14:33:48.298Z,17.47
2023-03-30T14:36:23.278Z,17.36
2023-03-30T14:38:57.928Z,17.14
2023-03-30T14:41:29.166Z,17.10
2023-03-30T14:44:03.600Z,17.21
2023-03-30T14:46:42.889Z,17.33
2023-03-30T14:49:20.207Z,17.47
2023-03-30T14:51:52.148Z,17.58
2023-03-30T14:54:27.566Z,17.62
2023-03-30T14:57:01.421Z,17.74
2023-03-30T14:59:33.332Z,17.80
2023-03-30T15:02:04.341Z,17.77
2023-03-30T15:04:39.042Z,17.75
2023-03-30T15:07:12.161Z,17.67
2023-03-30T15:09:47.248Z,17.65
2023-03-30T15:12:24.680Z,17.53
2023-03-30T15:15:01.246Z,17.45
2023-03-30T15:17:32.603Z,17.38
2023-03-30T15:20:06.546Z,17.32
2023-03-30T15:22:39.338Z,17.32
2023-03-30T15:25:16.031Z,17.28
2023-03-30T15:27:49.527Z,17.14
2023-03-30T15:30:30.782Z,17.07
2023-03-30T15:33:01.785Z,17.19
2023-03-30T15:35:34.072Z,17.24
2023-03-30T15:38:05.602Z,17.33
2023-03-30T15:40:40.780Z,17.31
2023-03-30T15:43:19.052Z,17.25
2023-03-30T15:45:55.432Z,17.21
2023-03-30T15:48:28.830Z,17.18
2023-03-30T15:51:03.637Z,17.16
2023-03-30T15:53:54.456Z,17.05
2023-03-30T15:56:33.226Z,17.17
2023-03-30T15:59:04.377Z,17.15
2023-03-30T16:01:46.267Z,17.07
2023-03-30T16:04:18.524Z,17.09
2023-03-30T16:06:48.611Z,17.12
2023-03-30T16:09:18.866Z,17.12
2023-03-30T16:11:51.759Z,17.15
2023-03-30T16:14:23.301Z,17.09
2023-03-30T16:16:58.668Z,17.00
2023-03-30T16:22:10.224Z,16.92
2023-03-30T16:24:42.762Z,16.88
2023-03-30T16:27:16.828Z,16.83
2023-03-30T16:32:40.801Z,16.73
2023-03-30T16:49:45.801Z,16.13
2023-03-30T16:57:19.206Z,16.01
2023-03-30T16:59:56.118Z,15.99
2023-03-30T17:02:52.862Z,15.93
2023-03-30T17:09:01.191Z,15.88
2023-03-30T17:11:31.566Z,15.80
2023-03-30T17:14:01.616Z,15.77
2023-03-30T17:16:35.178Z,15.55
2023-03-30T17:19:05.347Z,15.37
2023-03-30T17:21:35.870Z,15.27
2023-03-30T17:24:05.999Z,15.20
2023-03-30T17:26:39.516Z,15.09
2023-03-30T17:29:09.716Z,15.05
2023-03-30T17:31:46.028Z,15.01
2023-03-30T17:34:16.835Z,14.96
2023-03-30T17:36:50.078Z,14.92
2023-03-30T17:39:20.018Z,14.86
2023-03-30T17:41:49.993Z,14.82
2023-03-30T17:44:20.015Z,14.81
2023-03-30T17:46:52.891Z,14.79
2023-03-30T17:49:22.834Z,14.80
2023-03-30T17:51:54.251Z,14.82
2023-03-30T17:54:24.686Z,14.80
2023-03-30T17:56:54.904Z,14.77
2023-03-30T17:59:25.075Z,14.79
2023-03-30T18:01:58.017Z,14.76
2023-03-30T18:04:31.489Z,14.76
2023-03-30T18:07:03.086Z,14.74
2023-03-30T18:09:33.164Z,14.72
2023-03-30T18:12:03.350Z,14.73
2023-03-30T18:14:33.476Z,14.76
2023-03-30T18:17:07.366Z,14.73
2023-03-30T18:19:37.426Z,14.73
2023-03-30T18:22:07.684Z,14.75
2023-03-30T18:24:37.622Z,14.70
2023-03-30T18:27:07.573Z,14.73
2023-03-30T18:29:37.977Z,14.70
2023-03-30T18:32:10.530Z,14.69
2023-03-30T18:34:40.433Z,14.65
2023-03-30T18:37:11.414Z,14.64
2023-03-30T18:39:43.927Z,14.64
2023-03-30T18:42:13.840Z,14.63
2023-03-30T18:44:46.425Z,14.63
2023-03-30T18:47:29.649Z,14.62
2023-03-30T18:50:01.686Z,14.68
2023-03-30T18:52:34.405Z,14.65
2023-03-30T18:55:04.434Z,14.65
2023-03-30T18:57:36.378Z,14.63
2023-03-30T19:00:17.642Z,14.62
2023-03-30T19:02:53.913Z,14.61
2023-03-30T19:05:26.223Z,14.62
2023-03-30T19:07:56.940Z,14.59
2023-03-30T19:10:30.215Z,14.57
2023-03-30T19:13:00.794Z,14.54
2023-03-30T19:15:33.343Z,14.55
2023-03-30T19:18:07.752Z,14.53
2023-03-30T19:20:40.248Z,14.47
2023-03-30T19:23:11.250Z,14.45
2023-03-30T19:25:41.706Z,14.43
2023-03-30T19:28:12.539Z,14.39
2023-03-30T19:30:42.925Z,14.33
2023-03-30T19:33:20.077Z,14.30
2023-03-30T19:35:51.069Z,14.32
2023-03-30T19:38:21.859Z,14.32
2023-03-30T19:40:52.020Z,14.28
2023-03-30T19:43:22.492Z,14.24
2023-03-30T19:45:58.541Z,14.26
2023-03-30T19:48:31.476Z,14.23
2023-03-30T19:51:02.777Z,14.21
2023-03-30T19:53:32.977Z,14.20
2023-03-30T19:56:03.134Z,14.20
2023-03-30T19:58:35.679Z,14.19
2023-03-30T20:01:07.329Z,14.16
2023-03-30T20:03:50.082Z,14.13
2023-03-30T20:06:20.319Z,14.11
2023-03-30T20:08:51.251Z,14.08
2023-03-30T20:11:22.589Z,14.08
2023-03-30T20:14:07.898Z,14.01
2023-03-30T20:16:41.892Z,14.02
2023-03-30T20:19:29.032Z,13.96
2023-03-30T20:22:00.125Z,13.93
2023-03-30T20:24:30.294Z,13.93
2023-03-30T20:27:00.376Z,13.90
2023-03-30T20:29:50.038Z,13.84
2023-03-30T20:32:27.600Z,13.81
2023-03-30T20:35:00.400Z,13.84
2023-03-30T20:37:30.713Z,13.83
2023-03-30T20:40:04.167Z,13.80
2023-03-30T20:42:34.479Z,13.78
2023-03-30T20:45:04.544Z,13.76
2023-03-30T20:47:34.632Z,13.73
2023-03-30T20:50:08.781Z,13.70
2023-03-30T20:52:45.409Z,13.66
2023-03-30T20:55:17.314Z,13.59
2023-03-30T20:57:47.551Z,13.57
2023-03-30T21:00:20.795Z,13.58
2023-03-30T21:02:50.946Z,13.55
2023-03-30T21:05:23.760Z,13.51
2023-03-30T21:07:55.410Z,13.44
2023-03-30T21:10:25.722Z,13.45
2023-03-30T21:12:55.835Z,13.44
2023-03-30T21:15:27.442Z,13.45
2023-03-30T21:17:57.531Z,13.48
2023-03-30T21:20:31.267Z,13.48
2023-03-30T21:23:03.607Z,13.51
2023-03-30T21:25:33.913Z,13.52
2023-03-30T21:28:04.062Z,13.53
2023-03-30T21:30:34.990Z,13.48
2023-03-30T21:33:05.291Z,13.44
2023-03-30T21:35:38.206Z,13.48
2023-03-30T21:38:08.370Z,13.47
2023-03-30T21:40:38.898Z,13.47
2023-03-30T21:43:08.995Z,13.45
2023-03-30T21:45:39.129Z,13.45
2023-03-30T21:48:11.407Z,13.43
2023-03-30T21:50:44.160Z,13.43
2023-03-30T21:53:14.214Z,13.40
2023-03-30T21:55:44.526Z,13.38
2023-03-30T21:58:14.624Z,13.39
2023-03-30T22:00:48.901Z,13.39
2023-03-30T22:03:24.520Z,13.34
2023-03-30T22:06:00.718Z,13.31
2023-03-30T22:08:31.847Z,13.30
2023-03-30T22:11:03.434Z,13.27
2023-03-30T22:13:33.822Z,13.21
2023-03-30T22:16:06.032Z,13.14
2023-03-30T22:18:37.097Z,13.13
2023-03-30T22:21:11.697Z,13.11
2023-03-30T22:23:41.928Z,13.09
2023-03-30T22:26:13.598Z,13.13
2023-03-30T22:28:44.509Z,13.11
2023-03-30T22:31:17.158Z,13.09
2023-03-30T22:33:47.459Z,13.08
2023-03-30T22:36:22.579Z,13.08
2023-03-30T22:38:53.995Z,13.07
2023-03-30T22:41:24.540Z,13.03
2023-03-30T22:43:56.442Z,13.02
2023-03-30T22:46:28.371Z,13.03
2023-03-30T22:49:00.418Z,13.03
2023-03-30T22:51:34.303Z,13.05
2023-03-30T22:54:05.520Z,13.05
2023-03-30T22:56:35.573Z,13.07
2023-03-30T22:59:06.266Z,13.03
2023-03-30T23:04:36.811Z,13.00
2023-03-30T23:07:07.014Z,12.99
2023-03-30T23:09:38.689Z,12.95
2023-03-30T23:12:09.643Z,12.94
2023-03-30T23:14:39.805Z,12.92
2023-03-30T23:17:09.956Z,12.91
2023-03-30T23:19:45.978Z,12.91
2023-03-30T23:22:26.942Z,12.87
2023-03-30T23:24:57.376Z,12.90
2023-03-30T23:27:28.188Z,12.88
2023-03-30T23:30:06.952Z,12.87
2023-03-30T23:32:37.694Z,12.86
2023-03-30T23:35:11.330Z,12.86
2023-03-30T23:37:41.431Z,12.85
2023-03-30T23:40:12.985Z,12.81
2023-03-30T23:42:43.330Z,12.77
2023-03-30T23:45:14.068Z,12.76
2023-03-30T23:47:44.347Z,12.73
2023-03-30T23:50:17.659Z,12.71
2023-03-30T23:52:47.961Z,12.66
2023-03-30T23:55:18.760Z,12.64
2023-03-30T23:57:48.862Z,12.63
